Aviation Digital Data Service (ADDS)

Output produced by TAFs form (2359 UTC 18 February 2018)
found at http://www.aviationweather.gov/adds/tafs/
 
METAR text: ROMY 182300Z 15005KT 9999 FEW020 18/16 Q1019
Conditions at: ROMY (MIYAKOJIMA ISLAN, JP) observed 2300 UTC 18 February 2018
Temperature: 18.0°C (64°F)
Dewpoint: 16.0°C (61°F) [RH = 88%]
Pressure (altimeter): 30.09 inches Hg (1019.0 mb)
Winds: from the SSE (150 degrees) at 6 MPH (5 knots; 2.6 m/s)
Visibility: 6 or more miles (10+ km)
Ceiling: at least 12,000 feet AGL
Clouds: few clouds at 2000 feet AGL
Weather: no significant weather observed at this time